Time;durP1;ratioP1;P1;durP2;ratioP2;P2;SDS_P1;SDS_P2;PMS_P1;PMS_P2;Temp;Humidity;BMP_temperature;BMP_pressure;BME280_temperature;BME280_humidity;BME280_pressure;Samples;Min_cycle;Max_cycle;Signal;HPM_P1;HPM_P2
2022/12/02 00:00:22;;;;;;;25.88;11.48;;;3.80;99.90;;;;;;4736476;28;20036;-32
2022/12/02 00:02:49;;;;;;;31.13;12.43;;;3.70;99.90;;;;;;5002698;28;20515;-33
2022/12/02 00:05:14;;;;;;;27.90;13.20;;;3.70;99.90;;;;;;5001869;28;20053;-34
2022/12/02 00:07:41;;;;;;;26.90;12.68;;;3.70;99.90;;;;;;5004474;28;20120;-31
2022/12/02 00:10:29;;;;;;;33.70;12.23;;;3.70;99.90;;;;;;5003376;28;20084;-30
2022/12/02 00:13:19;;;;;;;31.50;12.80;;;3.70;99.90;;;;;;5003469;28;20049;-30
2022/12/02 00:15:48;;;;;;;29.95;13.63;;;3.70;99.90;;;;;;5003014;28;20049;-30
2022/12/02 00:18:15;;;;;;;27.90;12.18;;;3.70;99.90;;;;;;5009379;28;20060;-31
2022/12/02 00:20:42;;;;;;;27.13;11.88;;;3.80;99.90;;;;;;5008489;28;20026;-31
2022/12/02 00:23:11;;;;;;;29.25;13.23;;;3.80;99.90;;;;;;5005628;28;20037;-33
2022/12/02 00:25:37;;;;;;;28.10;12.50;;;3.70;99.90;;;;;;5007971;28;20451;-31
2022/12/02 00:28:03;;;;;;;35.13;13.75;;;3.80;99.90;;;;;;5003142;28;20306;-31
2022/12/02 00:30:28;;;;;;;32.72;13.30;;;3.80;99.90;;;;;;5010719;28;20056;-31
2022/12/02 00:32:54;;;;;;;27.85;12.65;;;3.80;99.90;;;;;;5007608;28;20279;-31
2022/12/02 00:35:23;;;;;;;30.42;12.13;;;3.70;99.90;;;;;;5007794;28;20029;-30
2022/12/02 00:37:48;;;;;;;;;;;3.80;99.90;;;;;;5009439;28;20037;-30
2022/12/02 00:40:14;;;;;;;28.25;12.35;;;3.80;99.90;;;;;;5006908;28;20175;-33
2022/12/02 00:42:40;;;;;;;28.52;12.02;;;3.80;99.90;;;;;;5008987;28;20034;-35
2022/12/02 00:47:55;;;;;;;27.98;12.30;;;3.70;99.90;;;;;;5008806;28;20144;-30
2022/12/02 00:50:21;;;;;;;33.17;12.15;;;3.80;99.90;;;;;;5005297;28;20116;-32
2022/12/02 00:52:47;;;;;;;27.23;12.30;;;3.70;99.90;;;;;;5009317;28;20029;-32
2022/12/02 00:55:13;;;;;;;25.65;12.00;;;3.70;99.90;;;;;;5007192;28;20070;-33
2022/12/02 00:57:38;;;;;;;24.98;11.45;;;3.70;99.90;;;;;;5005823;28;20399;-31
2022/12/02 01:00:06;;;;;;;24.17;11.90;;;3.60;99.90;;;;;;5005525;28;20096;-34
2022/12/02 01:02:31;;;;;;;26.38;12.13;;;3.70;99.90;;;;;;5007301;28;20026;-31
2022/12/02 01:04:59;;;;;;;26.98;12.45;;;3.70;99.90;;;;;;5002777;28;20025;-32
2022/12/02 01:07:25;;;;;;;28.70;12.15;;;3.70;99.90;;;;;;5006475;28;20045;-36
2022/12/02 01:09:51;;;;;;;30.65;13.38;;;3.50;99.90;;;;;;5009626;28;20431;-33
2022/12/02 01:12:16;;;;;;;27.38;12.55;;;3.60;99.90;;;;;;5005416;28;20041;-31
2022/12/02 01:14:42;;;;;;;31.58;12.25;;;3.60;99.90;;;;;;5007508;28;20026;-31
2022/12/02 01:17:08;;;;;;;25.83;11.48;;;3.60;99.90;;;;;;5008258;28;20038;-31
2022/12/02 01:19:33;;;;;;;28.30;12.43;;;3.60;99.90;;;;;;5020100;28;20034;-33
2022/12/02 01:21:59;;;;;;;23.35;11.40;;;3.60;99.90;;;;;;5004128;28;20118;-31
2022/12/02 01:24:24;;;;;;;22.48;11.20;;;3.70;99.90;;;;;;5002781;28;21702;-31
2022/12/02 01:26:50;;;;;;;25.73;12.85;;;3.60;99.90;;;;;;5005823;28;20077;-31
2022/12/02 01:29:16;;;;;;;26.73;12.23;;;3.60;99.90;;;;;;5006925;28;20052;-30
2022/12/02 01:31:41;;;;;;;27.70;11.55;;;3.60;99.90;;;;;;5008131;28;20499;-31
2022/12/02 01:34:07;;;;;;;27.10;11.15;;;3.60;99.90;;;;;;5008038;28;20037;-31
2022/12/02 01:36:33;;;;;;;41.20;15.93;;;3.60;99.90;;;;;;5004942;28;20018;-32
2022/12/02 01:38:58;;;;;;;37.38;14.15;;;3.60;99.90;;;;;;5007693;28;20069;-32
2022/12/02 01:41:24;;;;;;;33.35;13.52;;;3.60;99.90;;;;;;5010329;28;20068;-32
2022/12/02 01:43:50;;;;;;;30.60;14.30;;;3.50;99.90;;;;;;5001397;28;20034;-31
2022/12/02 01:46:15;;;;;;;30.83;13.80;;;3.40;99.90;;;;;;5000027;28;20034;-36
2022/12/02 01:48:41;;;;;;;27.88;12.85;;;3.40;99.90;;;;;;4999026;28;20105;-35
2022/12/02 01:51:07;;;;;;;38.08;14.55;;;3.50;99.90;;;;;;5001681;28;20045;-34
2022/12/02 01:53:34;;;;;;;34.58;14.23;;;3.50;99.90;;;;;;5002896;28;20030;-31
2022/12/02 01:56:00;;;;;;;27.45;11.65;;;3.50;99.90;;;;;;5006489;28;20125;-34
2022/12/02 01:58:29;;;;;;;25.25;12.07;;;3.30;99.90;;;;;;5002771;28;20040;-33
2022/12/02 02:00:55;;;;;;;35.15;13.23;;;3.30;99.90;;;;;;5005196;28;20537;-30
2022/12/02 02:03:21;;;;;;;31.05;11.75;;;3.30;99.90;;;;;;5007940;28;20518;-30
2022/12/02 02:05:47;;;;;;;28.60;11.82;;;3.40;99.90;;;;;;5006303;28;20041;-32
2022/12/02 02:08:13;;;;;;;30.52;14.15;;;3.50;99.90;;;;;;5004689;28;20044;-30
2022/12/02 02:10:42;;;;;;;28.85;12.88;;;3.40;99.90;;;;;;5003973;28;20034;-30
2022/12/02 02:13:09;;;;;;;30.27;12.90;;;3.40;99.90;;;;;;5001193;28;20026;-30
2022/12/02 02:15:37;;;;;;;28.20;13.05;;;3.30;99.90;;;;;;5003181;28;20045;-31
2022/12/02 02:18:03;;;;;;;29.80;12.20;;;3.20;99.90;;;;;;5002020;28;20044;-36
2022/12/02 02:20:29;;;;;;;30.08;12.27;;;3.30;99.90;;;;;;5005610;28;20112;-30
2022/12/02 02:23:03;;;;;;;29.15;12.68;;;3.30;99.90;;;;;;5005502;28;20096;-32
2022/12/02 02:26:02;;;;;;;25.67;12.35;;;3.30;99.90;;;;;;5004487;28;20037;-31
2022/12/02 02:28:28;;;;;;;24.38;10.95;;;3.30;99.90;;;;;;4999598;28;20026;-30
2022/12/02 02:30:56;;;;;;;28.45;13.73;;;3.30;99.90;;;;;;5004949;28;20828;-34
2022/12/02 02:33:23;;;;;;;30.58;12.98;;;3.40;99.90;;;;;;5002421;28;20146;-30
2022/12/02 02:35:49;;;;;;;24.90;11.68;;;3.40;99.90;;;;;;5009275;28;20026;-30
2022/12/02 02:38:19;;;;;;;22.80;10.98;;;3.40;99.90;;;;;;5002956;28;20044;-32
2022/12/02 02:40:45;;;;;;;27.30;13.05;;;3.50;99.90;;;;;;5005540;28;20298;-35
2022/12/02 02:43:11;;;;;;;26.77;12.55;;;3.50;99.90;;;;;;5004201;28;20045;-30
2022/12/02 02:45:40;;;;;;;25.33;11.63;;;3.50;99.90;;;;;;5005977;28;20213;-30
2022/12/02 02:48:07;;;;;;;;;;;3.50;99.90;;;;;;5004129;28;20029;-32
2022/12/02 02:50:35;;;;;;;24.65;11.63;;;3.50;99.90;;;;;;5001926;28;20383;-30
2022/12/02 02:53:01;;;;;;;25.13;11.35;;;3.50;99.90;;;;;;5007335;28;20108;-30
2022/12/02 02:55:27;;;;;;;24.35;11.55;;;3.50;99.90;;;;;;5008192;28;20034;-33
2022/12/02 02:57:53;;;;;;;27.13;12.05;;;3.50;99.90;;;;;;5005521;28;20018;-31
2022/12/02 03:00:21;;;;;;;24.70;10.98;;;3.50;99.90;;;;;;5004905;28;20406;-32
2022/12/02 03:02:51;;;;;;;28.60;13.03;;;3.60;99.90;;;;;;5004536;28;20084;-34
2022/12/02 03:05:17;;;;;;;29.83;11.27;;;3.60;99.90;;;;;;5006723;28;20030;-33
2022/12/02 03:07:44;;;;;;;27.17;12.38;;;3.60;99.90;;;;;;5003122;28;20116;-30
2022/12/02 03:10:10;;;;;;;21.73;10.13;;;3.60;99.90;;;;;;5004974;28;20034;-30
2022/12/02 03:12:36;;;;;;;28.92;11.70;;;3.60;99.90;;;;;;5007320;28;20026;-30
2022/12/02 03:15:03;;;;;;;27.80;11.65;;;3.60;99.90;;;;;;5004607;28;20034;-30
2022/12/02 03:17:29;;;;;;;31.20;13.52;;;3.60;99.90;;;;;;5003082;28;20107;-37
2022/12/02 03:19:55;;;;;;;30.40;12.98;;;3.60;99.90;;;;;;5007412;28;20113;-29
2022/12/02 03:22:21;;;;;;;23.42;10.75;;;3.60;99.90;;;;;;5003000;28;20786;-30
2022/12/02 03:24:46;;;;;;;23.10;10.65;;;3.60;99.90;;;;;;5002750;28;20502;-30
2022/12/02 03:27:13;;;;;;;25.73;11.45;;;3.60;99.90;;;;;;5005358;28;20025;-33
2022/12/02 03:29:39;;;;;;;28.00;12.45;;;3.60;99.90;;;;;;5005556;28;20027;-30
2022/12/02 03:32:05;;;;;;;28.00;11.38;;;3.60;99.90;;;;;;4996137;28;20311;-31
2022/12/02 03:34:32;;;;;;;26.10;11.88;;;3.60;99.90;;;;;;4985541;28;20026;-36
2022/12/02 03:36:58;;;;;;;25.67;12.48;;;3.60;99.90;;;;;;4987339;28;20030;-37
2022/12/02 03:39:25;;;;;;;30.02;13.10;;;3.60;99.90;;;;;;4986476;28;20395;-33
2022/12/02 03:41:51;;;;;;;23.15;11.32;;;3.70;99.90;;;;;;4993198;28;20030;-30
2022/12/02 03:44:16;;;;;;;31.98;14.65;;;3.60;99.90;;;;;;4996749;28;20068;-34
2022/12/02 03:46:42;;;;;;;26.88;13.07;;;3.70;99.90;;;;;;4995014;28;20029;-30
2022/12/02 03:49:09;;;;;;;38.47;14.15;;;3.70;99.90;;;;;;4995461;28;20108;-32
2022/12/02 03:51:35;;;;;;;30.88;13.40;;;3.70;99.90;;;;;;5001034;28;20057;-31
2022/12/02 03:54:01;;;;;;;27.48;12.68;;;3.60;99.90;;;;;;4992251;28;20136;-30
2022/12/02 03:56:27;;;;;;;25.92;12.30;;;3.60;99.90;;;;;;4989305;28;20095;-31
2022/12/02 03:58:53;;;;;;;27.50;12.77;;;3.60;99.90;;;;;;4987447;28;20053;-33
2022/12/02 04:01:21;;;;;;;28.75;13.18;;;3.70;99.90;;;;;;4990963;28;20042;-32
2022/12/02 04:03:46;;;;;;;24.63;11.65;;;3.60;99.90;;;;;;4983300;28;20137;-33
2022/12/02 04:06:13;;;;;;;30.08;13.98;;;3.70;99.90;;;;;;4983972;28;20077;-36
2022/12/02 04:08:39;;;;;;;30.27;13.50;;;3.60;99.90;;;;;;4984881;28;20033;-34
2022/12/02 04:11:04;;;;;;;34.78;14.65;;;3.60;99.90;;;;;;4991423;28;20034;-33
2022/12/02 04:13:30;;;;;;;31.38;15.15;;;3.50;99.90;;;;;;4999660;28;20060;-34
2022/12/02 04:15:56;;;;;;;31.90;13.35;;;3.50;99.90;;;;;;5004003;28;20041;-30
2022/12/02 04:18:22;;;;;;;30.92;13.40;;;3.50;99.90;;;;;;5004712;28;20061;-29
2022/12/02 04:20:48;;;;;;;36.95;14.25;;;3.40;99.90;;;;;;5005695;28;20495;-33
2022/12/02 04:23:13;;;;;;;28.95;13.85;;;3.40;99.90;;;;;;5002720;28;20068;-30
2022/12/02 04:25:39;;;;;;;36.85;13.68;;;3.40;99.90;;;;;;5001942;28;20060;-30
2022/12/02 04:28:05;;;;;;;30.73;14.40;;;3.40;99.90;;;;;;4991485;28;20034;-34
2022/12/02 04:30:30;;;;;;;33.60;14.93;;;3.40;99.90;;;;;;4996123;28;20442;-32
2022/12/02 04:32:56;;;;;;;35.75;14.57;;;3.50;99.90;;;;;;5001703;28;20053;-33
2022/12/02 04:35:21;;;;;;;34.33;14.13;;;3.50;99.90;;;;;;5005502;28;20541;-30
2022/12/02 04:37:48;;;;;;;30.85;12.98;;;3.50;99.90;;;;;;5004484;28;20384;-30
2022/12/02 04:40:13;;;;;;;31.20;13.52;;;3.40;99.90;;;;;;5006420;28;20023;-32
2022/12/02 04:42:39;;;;;;;31.42;13.48;;;3.40;99.90;;;;;;5006477;28;20025;-30
2022/12/02 04:45:05;;;;;;;28.35;12.52;;;3.40;99.90;;;;;;5005873;28;20045;-30
2022/12/02 04:47:31;;;;;;;35.72;15.25;;;3.40;99.90;;;;;;5000038;28;20067;-33
2022/12/02 04:49:56;;;;;;;36.63;14.60;;;3.30;99.90;;;;;;5005511;28;20061;-31
2022/12/02 04:52:22;;;;;;;34.05;15.27;;;3.30;99.90;;;;;;5002055;28;20530;-30
2022/12/02 04:54:47;;;;;;;32.05;13.85;;;3.30;99.90;;;;;;5004197;28;20542;-30
2022/12/02 04:57:13;;;;;;;29.90;14.43;;;3.40;99.90;;;;;;5003049;28;20033;-31
2022/12/02 04:59:39;;;;;;;34.88;12.75;;;3.40;99.90;;;;;;5006367;28;20029;-31
2022/12/02 05:02:04;;;;;;;30.98;14.55;;;3.50;99.90;;;;;;5004714;28;20042;-30
2022/12/02 05:04:30;;;;;;;30.17;13.40;;;3.40;99.90;;;;;;5007144;28;20029;-30
2022/12/02 05:06:55;;;;;;;33.13;14.55;;;3.40;99.90;;;;;;5007765;28;20049;-30
2022/12/02 05:09:21;;;;;;;33.83;14.25;;;3.40;99.90;;;;;;5017195;28;20093;-31
2022/12/02 05:11:47;;;;;;;38.90;14.45;;;3.40;99.90;;;;;;5006084;28;20030;-32
2022/12/02 05:14:12;;;;;;;35.95;13.52;;;3.30;99.90;;;;;;5008379;28;20030;-31
2022/12/02 05:16:38;;;;;;;32.63;14.25;;;3.30;99.90;;;;;;5005974;28;20026;-30
2022/12/02 05:19:03;;;;;;;35.33;13.63;;;3.30;99.90;;;;;;5009421;28;20091;-31
2022/12/02 05:21:29;;;;;;;35.60;14.77;;;3.20;99.90;;;;;;5009551;28;20076;-30
2022/12/02 05:23:54;;;;;;;31.70;13.90;;;3.30;99.90;;;;;;5007888;28;20045;-30
2022/12/02 05:26:20;;;;;;;36.25;15.95;;;3.30;99.90;;;;;;5005948;28;20961;-29
2022/12/02 05:28:45;;;;;;;33.40;14.15;;;3.40;99.90;;;;;;5009266;28;20028;-30
2022/12/02 05:31:11;;;;;;;34.63;14.35;;;3.40;99.90;;;;;;5008001;28;20037;-30
2022/12/02 05:33:37;;;;;;;28.38;14.52;;;3.40;99.90;;;;;;5006393;28;20104;-36
2022/12/02 05:36:02;;;;;;;31.15;12.60;;;3.40;99.90;;;;;;5008994;28;20045;-30
2022/12/02 05:38:28;;;;;;;29.23;13.00;;;3.40;99.90;;;;;;5008509;28;20167;-30
2022/12/02 05:40:55;;;;;;;30.48;13.40;;;3.30;99.90;;;;;;5006469;28;20080;-30
2022/12/02 05:43:23;;;;;;;29.30;13.40;;;3.40;99.90;;;;;;5005433;28;20030;-30
2022/12/02 05:45:49;;;;;;;28.17;12.38;;;3.40;99.90;;;;;;5009328;28;20029;-30
2022/12/02 05:48:18;;;;;;;29.42;13.77;;;3.50;99.90;;;;;;5004087;28;20033;-30
2022/12/02 05:50:44;;;;;;;39.83;14.52;;;3.40;99.90;;;;;;5005054;28;20446;-30
2022/12/02 05:53:16;;;;;;;33.00;15.88;;;3.30;99.90;;;;;;5005793;28;20080;-30
2022/12/02 05:55:42;;;;;;;36.25;14.82;;;3.30;99.90;;;;;;5018461;28;20418;-30
2022/12/02 05:58:11;;;;;;;30.13;14.40;;;3.30;99.90;;;;;;5002886;28;20026;-32
2022/12/02 06:00:37;;;;;;;28.45;13.55;;;3.40;99.90;;;;;;5004917;28;20150;-31
2022/12/02 06:03:07;;;;;;;33.83;15.23;;;3.40;99.90;;;;;;5003297;28;20025;-30
2022/12/02 06:05:37;;;;;;;27.15;11.57;;;3.50;99.90;;;;;;5005900;28;20022;-32
2022/12/02 06:08:18;;;;;;;33.47;13.18;;;3.50;99.90;;;;;;5001421;28;20041;-30
2022/12/02 06:10:49;;;;;;;26.65;11.82;;;3.50;99.90;;;;;;5004125;28;20105;-30
2022/12/02 06:13:24;;;;;;;30.10;12.25;;;3.50;99.90;;;;;;5003886;28;20018;-30
2022/12/02 06:15:51;;;;;;;28.50;12.77;;;3.50;99.90;;;;;;5003904;28;20044;-29
2022/12/02 06:18:23;;;;;;;29.63;12.85;;;3.50;99.90;;;;;;5000043;28;20038;-31
2022/12/02 06:21:12;;;;;;;31.25;12.65;;;3.50;99.90;;;;;;5002654;28;20064;-34
2022/12/02 06:23:46;;;;;;;24.88;13.75;;;3.50;99.90;;;;;;5004465;28;20052;-31
2022/12/02 06:26:13;;;;;;;34.33;13.35;;;3.50;99.90;;;;;;5002650;28;20021;-31
2022/12/02 06:28:40;;;;;;;30.85;12.63;;;3.50;99.90;;;;;;5003900;28;20080;-30
2022/12/02 06:31:15;;;;;;;29.88;13.60;;;3.50;99.90;;;;;;5007164;28;20049;-30
2022/12/02 06:33:42;;;;;;;26.85;12.93;;;3.50;99.90;;;;;;5004853;28;20633;-31
2022/12/02 06:36:15;;;;;;;32.72;13.27;;;3.40;99.90;;;;;;5003514;28;20088;-32
2022/12/02 06:38:50;;;;;;;27.35;11.52;;;3.40;99.90;;;;;;5003196;28;20491;-30
2022/12/02 06:41:24;;;;;;;26.20;11.07;;;3.40;99.90;;;;;;5002606;28;20462;-30
2022/12/02 06:46:36;;;;;;;31.42;11.85;;;3.50;99.90;;;;;;5004504;28;20033;-30
2022/12/02 06:49:22;;;;;;;29.67;12.48;;;3.50;99.90;;;;;;5007224;28;20040;-31
2022/12/02 06:52:05;;;;;;;28.27;12.70;;;3.50;99.90;;;;;;5003227;28;20022;-30
2022/12/02 06:54:31;;;;;;;29.65;13.60;;;3.50;99.90;;;;;;5001588;28;20056;-33
2022/12/02 06:56:59;;;;;;;29.75;14.05;;;3.50;99.90;;;;;;5002367;28;20044;-30
2022/12/02 06:59:26;;;;;;;30.58;12.52;;;3.50;99.90;;;;;;5004266;28;20029;-30
2022/12/02 07:01:55;;;;;;;29.35;13.65;;;3.50;99.90;;;;;;5004127;28;20033;-31
2022/12/02 07:04:30;;;;;;;27.60;13.52;;;3.60;99.90;;;;;;4996943;28;20095;-30
2022/12/02 07:07:00;;;;;;;24.90;11.57;;;3.60;99.90;;;;;;5003464;28;20124;-30
2022/12/02 07:09:42;;;;;;;30.75;14.05;;;3.60;99.90;;;;;;5000464;28;20034;-30
2022/12/02 07:12:28;;;;;;;32.10;12.60;;;3.50;99.90;;;;;;4998348;28;20140;-33
2022/12/02 07:15:01;;;;;;;27.85;12.52;;;3.50;99.90;;;;;;5000597;28;20041;-33
2022/12/02 07:17:39;;;;;;;31.92;15.05;;;3.50;99.90;;;;;;4991523;28;20041;-31
2022/12/02 07:20:04;;;;;;;28.17;13.02;;;3.50;99.90;;;;;;4990870;28;20052;-34
2022/12/02 07:22:36;;;;;;;23.90;11.05;;;3.60;99.90;;;;;;5008682;28;20026;-31
2022/12/02 07:25:22;;;;;;;20.45;10.02;;;3.60;99.90;;;;;;5006569;28;20033;-30
2022/12/02 07:27:48;;;;;;;25.13;11.15;;;3.60;99.90;;;;;;4999928;28;20018;-31
2022/12/02 07:30:29;;;;;;;27.98;12.25;;;3.50;99.90;;;;;;5005851;28;20026;-31
2022/12/02 07:32:55;;;;;;;28.73;10.80;;;3.50;99.90;;;;;;5006481;28;20398;-31
2022/12/02 07:35:22;;;;;;;29.90;12.15;;;3.50;99.90;;;;;;5002023;28;20120;-31
2022/12/02 07:37:48;;;;;;;27.33;11.98;;;3.50;99.90;;;;;;5003297;28;20045;-30
2022/12/02 07:40:15;;;;;;;28.52;13.65;;;3.50;99.90;;;;;;5005873;28;20065;-31
2022/12/02 07:42:42;;;;;;;24.40;12.18;;;3.40;99.90;;;;;;5005689;28;20487;-31
2022/12/02 07:45:09;;;;;;;28.85;13.45;;;3.40;99.90;;;;;;5005520;28;20091;-31
2022/12/02 07:47:34;;;;;;;24.40;11.57;;;3.40;99.90;;;;;;5005710;28;20030;-30
2022/12/02 07:50:00;;;;;;;31.98;13.07;;;3.50;99.90;;;;;;5004969;28;20030;-31
2022/12/02 07:52:26;;;;;;;30.40;13.07;;;3.50;99.90;;;;;;5003051;28;20084;-30
2022/12/02 07:54:53;;;;;;;35.53;14.23;;;3.40;99.90;;;;;;5005642;28;20030;-31
2022/12/02 07:57:19;;;;;;;32.75;14.00;;;3.40;99.90;;;;;;5003339;28;20030;-34
2022/12/02 07:59:44;;;;;;;29.52;12.93;;;3.40;99.90;;;;;;5007251;28;20049;-31
2022/12/02 08:02:10;;;;;;;26.80;12.20;;;3.50;99.90;;;;;;5005800;28;20045;-32
2022/12/02 08:04:36;;;;;;;29.45;11.50;;;3.50;99.90;;;;;;5005333;28;20026;-30
2022/12/02 08:07:01;;;;;;;31.73;13.10;;;3.50;99.90;;;;;;5005120;28;20043;-31
2022/12/02 08:09:27;;;;;;;35.08;13.00;;;3.50;99.90;;;;;;5005330;28;20096;-30
2022/12/02 08:11:52;;;;;;;31.02;13.32;;;3.50;99.90;;;;;;5007341;28;20145;-31
2022/12/02 08:14:18;;;;;;;27.25;12.65;;;3.50;99.90;;;;;;5002258;28;20037;-30
2022/12/02 08:16:43;;;;;;;25.35;13.15;;;3.40;99.90;;;;;;5006214;28;20029;-30
2022/12/02 08:19:09;;;;;;;28.02;12.05;;;3.50;99.90;;;;;;5006325;28;20042;-32
2022/12/02 08:21:35;;;;;;;24.73;11.15;;;3.40;99.90;;;;;;5003094;28;20402;-30
2022/12/02 08:24:00;;;;;;;28.05;12.27;;;3.30;99.90;;;;;;5006837;28;20022;-31
2022/12/02 08:26:26;;;;;;;27.00;11.60;;;3.20;99.90;;;;;;5008620;28;20064;-32
2022/12/02 08:28:52;;;;;;;25.65;12.38;;;3.20;99.90;;;;;;5001845;28;20026;-30
2022/12/02 08:31:18;;;;;;;28.98;13.05;;;3.20;99.90;;;;;;5002609;28;20034;-30
2022/12/02 08:33:43;;;;;;;32.40;12.90;;;3.30;99.90;;;;;;5002459;28;20360;-30
2022/12/02 08:36:09;;;;;;;28.75;12.73;;;3.30;99.90;;;;;;5019099;28;20037;-32
2022/12/02 08:38:34;;;;;;;34.85;15.43;;;3.40;99.90;;;;;;5003156;28;20097;-34
2022/12/02 08:41:00;;;;;;;27.13;12.77;;;3.40;99.90;;;;;;5007545;28;20036;-30
2022/12/02 08:43:25;;;;;;;28.52;13.30;;;3.30;99.90;;;;;;5007531;28;20465;-30
2022/12/02 08:45:51;;;;;;;31.30;13.30;;;3.30;99.90;;;;;;5007589;28;20026;-30
2022/12/02 08:48:17;;;;;;;25.90;12.13;;;3.20;99.90;;;;;;5009643;28;20035;-31
2022/12/02 08:50:42;;;;;;;27.67;13.32;;;3.20;99.90;;;;;;5006290;28;20030;-32
2022/12/02 08:53:08;;;;;;;31.45;13.07;;;3.30;99.90;;;;;;5007500;28;20538;-30
2022/12/02 08:55:34;;;;;;;28.40;12.77;;;3.30;99.90;;;;;;5006230;28;20033;-30
2022/12/02 08:57:59;;;;;;;31.33;13.13;;;3.30;99.90;;;;;;5007878;28;20466;-30
2022/12/02 09:00:25;;;;;;;32.47;14.80;;;3.20;99.90;;;;;;5008973;28;20044;-30
2022/12/02 09:02:51;;;;;;;22.90;12.35;;;3.20;99.90;;;;;;5002937;28;20419;-32
2022/12/02 09:05:16;;;;;;;30.42;13.82;;;3.20;99.90;;;;;;5009657;28;20656;-31
2022/12/02 09:07:42;;;;;;;30.85;13.27;;;3.20;99.90;;;;;;5008382;28;20529;-29
2022/12/02 09:10:09;;;;;;;32.60;11.25;;;3.30;99.90;;;;;;5003813;28;20199;-30
2022/12/02 09:12:35;;;;;;;28.85;14.07;;;3.30;99.90;;;;;;5007527;28;20041;-34
2022/12/02 09:15:00;;;;;;;27.85;13.63;;;3.40;99.90;;;;;;5008468;28;20026;-30
2022/12/02 09:17:26;;;;;;;32.75;14.13;;;3.40;99.90;;;;;;5007063;28;20038;-30
2022/12/02 09:19:51;;;;;;;25.75;12.63;;;3.40;99.90;;;;;;5008423;28;20026;-30
2022/12/02 09:22:17;;;;;;;31.33;13.55;;;3.50;99.90;;;;;;5006698;28;20037;-30
2022/12/02 09:24:43;;;;;;;30.30;13.40;;;3.50;99.90;;;;;;5005425;28;20070;-30
2022/12/02 09:27:08;;;;;;;25.80;11.85;;;3.50;99.90;;;;;;5005938;28;20034;-36
2022/12/02 09:29:34;;;;;;;29.67;12.60;;;3.50;99.90;;;;;;5006299;28;20066;-32
2022/12/02 09:32:00;;;;;;;29.83;13.05;;;3.50;99.90;;;;;;5005780;28;20539;-32
2022/12/02 09:34:25;;;;;;;30.88;12.23;;;3.50;99.90;;;;;;5005306;28;20056;-30
2022/12/02 09:36:51;;;;;;;26.90;12.85;;;3.40;99.90;;;;;;5005362;28;20037;-31
2022/12/02 09:39:17;;;;;;;31.30;13.05;;;3.40;99.90;;;;;;5003276;28;20395;-31
2022/12/02 09:41:43;;;;;;;28.67;13.48;;;3.40;99.90;;;;;;5003746;28;20029;-31
2022/12/02 09:44:09;;;;;;;31.70;12.50;;;3.50;99.90;;;;;;5004034;28;20072;-33
2022/12/02 09:46:35;;;;;;;29.70;13.65;;;3.50;99.90;;;;;;5005126;28;20026;-31
2022/12/02 09:49:01;;;;;;;32.83;13.52;;;3.60;99.90;;;;;;5002173;28;20018;-30
2022/12/02 09:51:27;;;;;;;31.50;14.25;;;3.70;99.90;;;;;;5007595;28;20037;-33
2022/12/02 09:53:53;;;;;;;28.20;13.35;;;3.70;99.90;;;;;;5003261;28;20080;-29
2022/12/02 09:56:21;;;;;;;30.52;13.25;;;3.70;99.90;;;;;;5008699;28;20033;-33
2022/12/02 09:58:49;;;;;;;30.90;13.63;;;3.70;99.90;;;;;;5005820;28;20034;-30
2022/12/02 10:01:15;;;;;;;33.92;14.35;;;3.70;99.90;;;;;;5004679;28;20399;-30
2022/12/02 10:03:43;;;;;;;31.40;12.95;;;3.80;99.90;;;;;;5008198;28;20087;-29
2022/12/02 10:06:23;;;;;;;31.52;13.68;;;3.80;99.90;;;;;;5005432;28;20073;-30
2022/12/02 10:08:49;;;;;;;33.30;13.65;;;3.70;99.90;;;;;;5006578;28;20048;-33
2022/12/02 10:11:31;;;;;;;32.80;14.48;;;3.70;99.90;;;;;;5008257;28;20026;-30
2022/12/02 10:13:58;;;;;;;39.40;13.60;;;3.70;99.90;;;;;;5005414;28;20030;-30
2022/12/02 10:16:26;;;;;;;27.50;13.23;;;3.70;99.90;;;;;;5003454;28;20117;-30
2022/12/02 10:19:00;;;;;;;31.48;13.82;;;3.80;99.90;;;;;;5006821;28;20042;-31
2022/12/02 10:21:26;;;;;;;31.65;13.82;;;3.80;99.90;;;;;;5005817;28;20038;-30
2022/12/02 10:23:58;;;;;;;31.38;13.50;;;3.80;99.90;;;;;;5006072;28;20390;-30
2022/12/02 10:26:24;;;;;;;32.92;13.13;;;3.80;99.90;;;;;;5009536;28;20036;-30
2022/12/02 10:29:00;;;;;;;30.40;14.35;;;3.80;99.90;;;;;;5004263;28;20026;-30
2022/12/02 10:31:26;;;;;;;32.75;15.05;;;3.90;99.90;;;;;;5009389;28;20041;-30
2022/12/02 10:34:04;;;;;;;31.42;14.00;;;3.90;99.90;;;;;;5003625;28;20022;-30
2022/12/02 10:36:38;;;;;;;32.97;15.13;;;3.90;99.90;;;;;;5000373;28;20038;-30
2022/12/02 10:39:26;;;;;;;33.83;13.88;;;3.90;99.90;;;;;;5007658;28;20038;-30
2022/12/02 10:42:06;;;;;;;33.05;14.45;;;3.90;99.90;;;;;;5006045;28;20142;-30
2022/12/02 10:44:34;;;;;;;26.05;13.45;;;4.00;99.90;;;;;;5007866;28;20042;-30
2022/12/02 10:47:21;;;;;;;32.22;13.40;;;4.00;99.90;;;;;;5003592;28;20026;-30
2022/12/02 10:49:55;;;;;;;29.30;13.23;;;4.00;99.90;;;;;;5004199;28;20030;-30
2022/12/02 10:52:30;;;;;;;29.63;12.48;;;4.00;99.90;;;;;;5022217;28;20114;-30
2022/12/02 10:54:57;;;;;;;26.95;13.82;;;4.00;99.90;;;;;;5005015;28;20033;-33
2022/12/02 10:57:29;;;;;;;37.33;14.35;;;4.00;99.90;;;;;;5008120;28;20438;-31
2022/12/02 10:59:56;;;;;;;31.80;14.57;;;4.00;99.90;;;;;;5003767;28;20018;-30
2022/12/02 11:02:29;;;;;;;31.88;12.80;;;4.00;99.90;;;;;;5004191;28;20057;-31
2022/12/02 11:04:54;;;;;;;30.42;14.05;;;4.10;99.90;;;;;;5003684;28;20026;-30
2022/12/02 11:07:22;;;;;;;39.08;14.18;;;4.00;99.90;;;;;;5001637;28;20360;-30
2022/12/02 11:09:53;;;;;;;32.40;13.15;;;4.00;99.90;;;;;;5008020;28;20331;-30
2022/12/02 11:12:32;;;;;;;31.10;14.05;;;4.10;99.90;;;;;;5001008;28;20038;-32
2022/12/02 11:14:58;;;;;;;29.25;12.88;;;4.10;99.90;;;;;;5006303;28;20487;-30
2022/12/02 11:17:50;;;;;;;35.22;15.93;;;4.10;99.90;;;;;;5003933;28;20040;-30
2022/12/02 11:20:43;;;;;;;35.38;14.73;;;4.10;99.90;;;;;;5007066;28;20026;-31
2022/12/02 11:23:18;;;;;;;34.78;14.85;;;4.10;99.90;;;;;;5002666;28;20502;-33
2022/12/02 11:25:46;;;;;;;28.42;12.35;;;4.10;99.90;;;;;;5003029;28;20030;-30
2022/12/02 11:28:17;;;;;;;33.50;13.43;;;4.10;99.90;;;;;;5005078;28;20034;-31
2022/12/02 11:30:45;;;;;;;29.48;13.45;;;4.10;99.90;;;;;;5007766;28;20033;-30
2022/12/02 11:33:32;;;;;;;27.40;13.95;;;4.10;99.90;;;;;;5004063;28;20348;-34
2022/12/02 11:36:12;;;;;;;30.00;12.55;;;4.10;99.90;;;;;;5006406;28;20522;-31
2022/12/02 11:38:44;;;;;;;32.97;13.52;;;4.10;99.90;;;;;;5002915;28;20117;-30
2022/12/02 11:41:09;;;;;;;30.98;13.68;;;4.00;99.90;;;;;;5005251;28;20372;-33
2022/12/02 11:43:47;;;;;;;30.63;13.95;;;4.00;99.90;;;;;;5002081;28;20064;-30
2022/12/02 11:46:21;;;;;;;33.58;14.18;;;4.00;99.90;;;;;;5007550;28;20030;-30
2022/12/02 11:48:54;;;;;;;27.73;12.68;;;4.10;99.90;;;;;;4997457;28;20033;-30
2022/12/02 11:51:28;;;;;;;32.47;14.20;;;4.00;99.90;;;;;;5002579;28;20387;-31
2022/12/02 11:53:54;;;;;;;35.10;14.63;;;4.00;99.90;;;;;;5006255;28;20076;-30
2022/12/02 11:56:20;;;;;;;32.00;14.43;;;3.90;99.90;;;;;;5001892;28;20030;-33
2022/12/02 11:58:46;;;;;;;33.40;13.43;;;3.90;99.90;;;;;;5003625;28;20033;-31
2022/12/02 12:01:18;;;;;;;40.65;15.77;;;3.90;99.90;;;;;;5006539;28;20076;-37
2022/12/02 12:03:48;;;;;;;34.05;15.73;;;3.80;99.90;;;;;;5000354;28;20080;-31
2022/12/02 12:06:19;;;;;;;27.65;13.95;;;3.80;99.90;;;;;;5002439;28;20070;-35
2022/12/02 12:08:48;;;;;;;31.50;15.10;;;3.80;99.90;;;;;;5000122;28;20049;-30
2022/12/02 12:11:36;;;;;;;36.28;15.05;;;3.80;99.90;;;;;;5005427;28;20410;-30
2022/12/02 12:14:10;;;;;;;32.58;14.65;;;3.80;99.90;;;;;;5004893;28;20034;-30
2022/12/02 12:16:47;;;;;;;35.78;14.13;;;3.90;99.90;;;;;;5003076;28;20038;-31
2022/12/02 12:19:14;;;;;;;36.08;15.90;;;3.90;99.90;;;;;;5006608;28;20487;-33
2022/12/02 12:21:46;;;;;;;35.30;15.05;;;3.90;99.90;;;;;;5007799;28;20034;-31
2022/12/02 12:24:18;;;;;;;34.65;16.05;;;3.90;99.90;;;;;;5006878;28;20044;-31
2022/12/02 12:26:46;;;;;;;34.45;15.57;;;3.90;99.90;;;;;;4997290;28;20121;-31
2022/12/02 12:29:12;;;;;;;33.08;15.00;;;3.80;99.90;;;;;;5002801;28;20025;-30
2022/12/02 12:31:37;;;;;;;33.78;14.30;;;3.80;99.90;;;;;;5004069;28;20080;-30
2022/12/02 12:34:05;;;;;;;33.92;14.20;;;3.80;99.90;;;;;;5005404;28;20117;-30
2022/12/02 12:36:30;;;;;;;30.48;15.13;;;3.80;99.90;;;;;;5005870;28;20041;-30
2022/12/02 12:38:56;;;;;;;36.47;15.85;;;3.80;99.90;;;;;;5008027;28;20025;-30
2022/12/02 12:41:21;;;;;;;32.03;14.32;;;3.80;99.90;;;;;;5006397;28;20076;-30
2022/12/02 12:43:47;;;;;;;36.10;14.90;;;3.80;99.90;;;;;;5005417;28;20120;-30
2022/12/02 12:46:13;;;;;;;31.20;13.88;;;3.70;99.90;;;;;;5004303;28;20069;-35
2022/12/02 12:48:38;;;;;;;37.28;14.10;;;3.70;99.90;;;;;;5006916;28;20045;-30